createdAt,value
2019-01-23T00:01:29.206Z,-1.10
2019-01-23T00:04:01.741Z,-1.10
2019-01-23T00:06:33.110Z,-1.10
2019-01-23T00:09:06.327Z,-1.00
2019-01-23T00:11:37.211Z,-1.00
2019-01-23T00:14:10.256Z,-1.00
2019-01-23T00:16:44.088Z,-1.00
2019-01-23T00:19:15.495Z,-1.00
2019-01-23T00:21:57.745Z,-1.10
2019-01-23T00:24:36.362Z,-1.10
2019-01-23T00:27:07.232Z,-1.10
2019-01-23T00:29:40.683Z,-1.20
2019-01-23T00:32:11.877Z,-1.10
2019-01-23T00:34:42.421Z,-0.90
2019-01-23T00:37:12.463Z,-0.90
2019-01-23T00:39:45.396Z,-0.90
2019-01-23T00:42:15.367Z,-0.90
2019-01-23T00:44:45.954Z,-0.90
2019-01-23T00:47:16.619Z,-0.90
2019-01-23T00:49:46.288Z,-0.90
2019-01-23T00:52:16.202Z,-0.90
2019-01-23T00:54:57.233Z,-1.00
2019-01-23T00:57:32.245Z,-1.00
2019-01-23T01:00:03.866Z,-1.10
2019-01-23T01:02:33.549Z,-1.10
2019-01-23T01:05:05.178Z,-1.10
2019-01-23T01:07:35.752Z,-1.00
2019-01-23T01:10:11.183Z,-1.00
2019-01-23T01:12:41.026Z,-1.00
2019-01-23T01:15:13.541Z,-1.00
2019-01-23T01:17:42.750Z,-1.10
2019-01-23T01:20:14.615Z,-1.00
2019-01-23T01:22:44.478Z,-1.00
2019-01-23T01:25:16.066Z,-1.00
2019-01-23T01:27:47.370Z,-0.90
2019-01-23T01:30:19.577Z,-0.90
2019-01-23T01:32:49.356Z,-0.80
2019-01-23T01:35:19.687Z,-0.80
2019-01-23T01:37:49.635Z,-0.80
2019-01-23T01:40:19.946Z,-0.80
2019-01-23T01:42:50.090Z,-0.90
2019-01-23T01:45:20.166Z,-0.90
2019-01-23T01:47:56.109Z,-0.90
2019-01-23T01:50:33.229Z,-0.90
2019-01-23T01:53:11.714Z,-0.90
2019-01-23T01:55:41.585Z,-0.90
2019-01-23T01:58:14.916Z,-0.90
2019-01-23T02:00:44.560Z,-0.90
2019-01-23T02:03:16.315Z,-1.00
2019-01-23T02:05:47.501Z,-0.90
2019-01-23T02:08:17.310Z,-1.00
2019-01-23T02:10:51.661Z,-0.90
2019-01-23T02:13:22.637Z,-0.90
2019-01-23T02:15:59.808Z,-0.90
2019-01-23T02:18:38.934Z,-0.90
2019-01-23T02:21:15.215Z,-0.90
2019-01-23T02:23:48.143Z,-0.90
2019-01-23T02:26:18.139Z,-0.90
2019-01-23T02:28:49.252Z,-0.90
2019-01-23T02:31:24.430Z,-0.90
2019-01-23T02:33:58.021Z,-0.90
2019-01-23T02:36:32.037Z,-0.80
2019-01-23T02:39:08.110Z,-0.80
2019-01-23T02:41:48.875Z,-0.80
2019-01-23T02:44:18.527Z,-0.80
2019-01-23T02:46:48.435Z,-0.80
2019-01-23T02:49:19.360Z,-0.90
2019-01-23T02:51:49.535Z,-0.80
2019-01-23T02:54:19.213Z,-0.90
2019-01-23T02:56:48.925Z,-0.90
2019-01-23T02:59:18.969Z,-0.90
2019-01-23T03:01:50.781Z,-0.90
2019-01-23T03:04:21.538Z,-0.80
2019-01-23T03:06:53.412Z,-0.80
2019-01-23T03:09:24.242Z,-0.80
2019-01-23T03:12:12.918Z,-0.80
2019-01-23T03:14:44.532Z,-0.80
2019-01-23T03:17:19.810Z,-0.80
2019-01-23T03:19:49.435Z,-0.80
2019-01-23T03:22:22.304Z,-0.90
2019-01-23T03:24:53.582Z,-0.80
2019-01-23T03:27:23.171Z,-0.80
2019-01-23T03:29:53.292Z,-0.80
2019-01-23T03:32:23.235Z,-0.70
2019-01-23T03:34:52.826Z,-0.80
2019-01-23T03:37:22.638Z,-0.70
2019-01-23T03:39:53.981Z,-0.70
2019-01-23T03:42:24.066Z,-0.60
2019-01-23T03:44:55.615Z,-0.60
2019-01-23T03:47:27.104Z,-0.70
2019-01-23T03:49:58.099Z,-0.70
2019-01-23T03:52:27.942Z,-0.70
2019-01-23T03:54:57.950Z,-0.70
2019-01-23T03:57:28.116Z,-0.80
2019-01-23T03:59:57.871Z,-0.80
2019-01-23T04:02:27.617Z,-0.80
2019-01-23T04:04:57.750Z,-0.70
2019-01-23T04:07:27.460Z,-0.70
2019-01-23T04:09:57.132Z,-0.70
2019-01-23T04:12:27.174Z,-0.70
2019-01-23T04:14:56.991Z,-0.70
2019-01-23T04:17:26.898Z,-0.70
2019-01-23T04:19:56.558Z,-0.70
2019-01-23T04:22:26.296Z,-0.70
2019-01-23T04:24:56.803Z,-0.70
2019-01-23T04:27:26.778Z,-0.70
2019-01-23T04:29:56.684Z,-0.60
2019-01-23T04:32:29.308Z,-0.70
2019-01-23T04:35:00.461Z,-0.70
2019-01-23T04:37:30.283Z,-0.80
2019-01-23T04:39:59.935Z,-0.80
2019-01-23T04:42:29.640Z,-0.70
2019-01-23T04:44:59.843Z,-0.80
2019-01-23T04:47:29.809Z,-0.80
2019-01-23T04:50:00.180Z,-0.80
2019-01-23T04:52:42.078Z,-0.80
2019-01-23T04:55:12.012Z,-0.90
2019-01-23T04:57:41.718Z,-0.90
2019-01-23T05:00:19.507Z,-0.90
2019-01-23T05:02:50.616Z,-0.90
2019-01-23T05:05:21.030Z,-0.90
2019-01-23T05:07:50.813Z,-0.90
2019-01-23T05:10:20.576Z,-0.90
2019-01-23T05:12:50.573Z,-0.90
2019-01-23T05:15:22.551Z,-0.90
2019-01-23T05:17:52.159Z,-0.90
2019-01-23T05:20:21.839Z,-0.90
2019-01-23T05:22:51.452Z,-0.90
2019-01-23T05:25:21.608Z,-0.80
2019-01-23T05:27:51.211Z,-0.90
2019-01-23T05:30:26.104Z,-0.80
2019-01-23T05:32:56.355Z,-0.80
2019-01-23T05:35:27.368Z,-0.80
2019-01-23T05:37:57.308Z,-0.80
2019-01-23T05:40:27.491Z,-0.90
2019-01-23T05:42:57.169Z,-0.90
2019-01-23T05:45:31.891Z,-0.90
2019-01-23T05:48:05.569Z,-0.90
2019-01-23T05:50:42.983Z,-0.80
2019-01-23T05:53:13.153Z,-0.90
2019-01-23T05:55:42.912Z,-0.80
2019-01-23T05:58:13.560Z,-0.80
2019-01-23T06:00:43.839Z,-0.90
2019-01-23T06:03:13.842Z,-0.80
2019-01-23T06:05:43.587Z,-0.80
2019-01-23T06:08:13.668Z,-0.70
2019-01-23T06:10:43.707Z,-0.80
2019-01-23T06:13:13.399Z,-0.80
2019-01-23T06:15:43.126Z,-0.70
2019-01-23T06:18:15.630Z,-0.70
2019-01-23T06:20:45.266Z,-0.70
2019-01-23T06:23:15.138Z,-0.70
2019-01-23T06:25:45.272Z,-0.70
2019-01-23T06:28:15.116Z,-0.70
2019-01-23T06:30:45.077Z,-0.70
2019-01-23T06:33:16.809Z,-0.70
2019-01-23T06:35:46.776Z,-0.70
2019-01-23T06:38:17.255Z,-0.70
2019-01-23T06:40:47.099Z,-0.80
2019-01-23T06:43:17.262Z,-0.70
2019-01-23T06:45:46.934Z,-0.80
2019-01-23T06:48:22.144Z,-0.80
2019-01-23T06:50:53.392Z,-0.80
2019-01-23T06:53:25.306Z,-0.80
2019-01-23T06:55:59.589Z,-0.80
2019-01-23T06:58:34.626Z,-0.70
2019-01-23T07:01:08.086Z,-0.70
2019-01-23T07:03:38.278Z,-0.80
2019-01-23T07:06:11.090Z,-0.80
2019-01-23T07:08:41.298Z,-0.70
2019-01-23T07:11:10.937Z,-0.70
2019-01-23T07:13:40.698Z,-0.80
2019-01-23T07:16:10.497Z,-0.80
2019-01-23T07:18:45.920Z,-0.80
2019-01-23T07:21:19.779Z,-0.80
2019-01-23T07:23:51.516Z,-0.70
2019-01-23T07:26:22.040Z,-0.70
2019-01-23T07:28:53.586Z,-0.70
2019-01-23T07:31:23.454Z,-0.60
2019-01-23T07:33:56.378Z,-0.70
2019-01-23T07:36:26.036Z,-0.70
2019-01-23T07:38:56.679Z,-0.70
2019-01-23T07:41:27.885Z,-0.70
2019-01-23T07:43:57.882Z,-0.80
2019-01-23T07:46:27.715Z,-0.70
2019-01-23T07:48:59.535Z,-0.70
2019-01-23T07:51:31.188Z,-0.70
2019-01-23T07:54:01.261Z,-0.70
2019-01-23T08:02:08.344Z,-0.60
2019-01-23T08:04:42.866Z,-0.60
2019-01-23T08:07:14.059Z,-0.60
2019-01-23T08:09:44.744Z,-0.70
2019-01-23T08:12:26.716Z,-0.90
2019-01-23T08:15:01.767Z,-0.90
2019-01-23T08:17:33.232Z,-0.90
2019-01-23T08:20:07.613Z,-0.90
2019-01-23T08:22:38.257Z,-0.90
2019-01-23T08:25:08.852Z,-0.80
2019-01-23T08:27:40.424Z,-0.70
2019-01-23T08:30:11.513Z,-0.70
2019-01-23T08:32:43.767Z,-0.90
2019-01-23T08:35:14.284Z,-0.90
2019-01-23T08:37:53.384Z,-0.90
2019-01-23T08:40:24.033Z,-0.90
2019-01-23T08:42:54.515Z,-0.80
2019-01-23T08:45:26.371Z,-0.80
2019-01-23T08:47:56.645Z,-0.90
2019-01-23T08:50:40.852Z,-0.80
2019-01-23T08:53:11.640Z,-0.80
2019-01-23T08:55:42.281Z,-0.70
2019-01-23T08:58:18.305Z,-0.70
2019-01-23T09:00:48.723Z,-0.60
2019-01-23T09:03:21.168Z,-0.50
2019-01-23T09:05:54.107Z,-0.50
2019-01-23T09:08:24.522Z,-0.40
2019-01-23T09:11:03.756Z,-0.40
2019-01-23T09:13:33.825Z,-0.50
2019-01-23T09:16:05.422Z,-0.50
2019-01-23T09:18:37.247Z,-0.40
2019-01-23T09:21:10.516Z,-0.40
2019-01-23T09:23:40.876Z,-0.30
2019-01-23T09:26:14.350Z,-0.20
2019-01-23T09:28:45.997Z,-0.20
2019-01-23T09:31:43.802Z,-0.10
2019-01-23T09:34:41.363Z,-0.10
2019-01-23T09:37:50.427Z,-0.20
2019-01-23T09:41:07.411Z,-0.20
2019-01-23T09:44:13.496Z,-0.30
2019-01-23T09:47:14.380Z,-0.30
2019-01-23T09:50:13.115Z,-0.30
2019-01-23T09:53:35.989Z,-0.40
2019-01-23T09:56:06.508Z,-0.20
2019-01-23T09:58:36.817Z,0.00
2019-01-23T10:01:11.746Z,0.00
2019-01-23T10:03:42.315Z,-0.10
2019-01-23T10:06:12.602Z,0.00
2019-01-23T10:08:46.518Z,0.10
2019-01-23T10:11:16.581Z,0.30
2019-01-23T10:13:49.262Z,0.30
2019-01-23T10:16:20.759Z,0.40
2019-01-23T10:18:56.181Z,0.40
2019-01-23T10:21:29.279Z,0.20
2019-01-23T10:24:02.685Z,0.20
2019-01-23T10:26:33.163Z,0.20
2019-01-23T10:29:03.911Z,0.20
2019-01-23T10:31:34.499Z,0.10
2019-01-23T10:34:05.613Z,0.20
2019-01-23T10:36:36.384Z,0.20
2019-01-23T10:39:09.520Z,0.40
2019-01-23T10:41:39.779Z,0.40
2019-01-23T10:44:10.489Z,0.50
2019-01-23T10:46:45.262Z,0.60
2019-01-23T10:49:20.220Z,0.90
2019-01-23T10:51:57.309Z,0.70
2019-01-23T10:54:31.027Z,0.60
2019-01-23T10:57:03.753Z,0.60
2019-01-23T10:59:39.005Z,0.80
2019-01-23T11:02:09.237Z,0.80
2019-01-23T11:04:44.245Z,0.90
2019-01-23T11:07:14.480Z,0.90
2019-01-23T11:09:48.680Z,0.80
2019-01-23T11:12:24.871Z,0.80
2019-01-23T11:14:56.133Z,1.00
2019-01-23T11:17:27.765Z,1.20
2019-01-23T11:19:59.171Z,1.20
2019-01-23T11:22:31.710Z,1.00
2019-01-23T11:25:04.892Z,0.80
2019-01-23T11:27:35.920Z,0.70
2019-01-23T11:30:10.669Z,0.70
2019-01-23T11:32:41.783Z,0.80
2019-01-23T11:35:12.344Z,0.80
2019-01-23T11:37:42.653Z,1.00
2019-01-23T11:40:22.599Z,1.20
2019-01-23T11:42:57.963Z,1.30
2019-01-23T11:45:34.234Z,1.30
2019-01-23T11:48:06.065Z,1.30
2019-01-23T11:50:38.819Z,1.30
2019-01-23T11:53:09.642Z,1.60
2019-01-23T11:55:40.639Z,1.60
2019-01-23T11:58:11.319Z,1.50
2019-01-23T12:00:41.837Z,1.50
2019-01-23T12:03:20.724Z,1.70
2019-01-23T12:05:47.343Z,1.80
2019-01-23T12:08:23.559Z,1.50
2019-01-23T12:10:54.467Z,1.40
2019-01-23T12:13:28.373Z,1.50
2019-01-23T12:16:01.213Z,1.70
2019-01-23T12:18:31.603Z,1.70
2019-01-23T12:21:02.241Z,1.60
2019-01-23T12:23:32.502Z,1.60
2019-01-23T12:26:06.905Z,1.50
2019-01-23T12:28:37.468Z,1.40
2019-01-23T12:31:08.715Z,1.30
2019-01-23T12:33:40.765Z,1.30
2019-01-23T12:36:13.948Z,1.60
2019-01-23T12:38:45.585Z,1.90
2019-01-23T12:41:21.231Z,2.00
2019-01-23T12:43:55.580Z,1.90
2019-01-23T12:46:28.682Z,2.20
2019-01-23T12:49:02.233Z,2.40
2019-01-23T12:51:35.047Z,2.50
2019-01-23T12:54:11.849Z,2.20
2019-01-23T12:56:44.891Z,2.10
2019-01-23T12:59:19.517Z,2.10
2019-01-23T13:01:49.765Z,2.20
2019-01-23T13:04:21.082Z,1.90
2019-01-23T13:06:55.329Z,2.00
2019-01-23T13:09:28.491Z,2.10
2019-01-23T13:12:01.758Z,1.90
2019-01-23T13:14:33.564Z,1.90
2019-01-23T13:17:05.095Z,2.20
2019-01-23T13:19:51.334Z,2.40
2019-01-23T13:22:24.957Z,2.40
2019-01-23T13:24:59.388Z,2.30
2019-01-23T13:27:30.437Z,2.30
2019-01-23T13:30:05.108Z,2.40
2019-01-23T13:32:35.646Z,2.40
2019-01-23T13:35:10.244Z,2.30
2019-01-23T13:37:43.347Z,2.30
2019-01-23T13:40:19.467Z,2.30
2019-01-23T13:42:55.063Z,2.20
2019-01-23T13:45:31.325Z,2.20
2019-01-23T13:48:07.871Z,2.20
2019-01-23T13:50:50.354Z,1.80
2019-01-23T13:53:25.880Z,1.70
2019-01-23T13:56:04.277Z,1.80
2019-01-23T13:58:41.761Z,1.70
2019-01-23T14:01:14.110Z,1.70
2019-01-23T14:03:49.603Z,1.70
2019-01-23T14:06:24.258Z,1.80
2019-01-23T14:08:54.911Z,1.70
2019-01-23T14:11:31.065Z,1.60
2019-01-23T14:14:05.839Z,1.60
2019-01-23T14:17:05.542Z,1.60
2019-01-23T14:19:38.079Z,1.50
2019-01-23T14:22:14.485Z,1.30
2019-01-23T14:24:46.627Z,1.30
2019-01-23T14:27:17.770Z,1.20
2019-01-23T14:29:51.236Z,1.30
2019-01-23T14:32:26.985Z,1.40
2019-01-23T14:35:02.203Z,1.40
2019-01-23T14:37:37.814Z,1.40
2019-01-23T14:40:10.753Z,1.40
2019-01-23T14:42:41.342Z,1.50
2019-01-23T14:45:12.185Z,1.40
2019-01-23T14:47:49.773Z,1.40
2019-01-23T14:50:24.990Z,1.30
2019-01-23T14:53:03.900Z,1.30
2019-01-23T14:55:38.309Z,1.20
2019-01-23T14:58:13.039Z,1.30
2019-01-23T15:00:47.639Z,1.40
2019-01-23T15:03:21.260Z,1.30
2019-01-23T15:05:52.201Z,1.20
2019-01-23T15:08:25.679Z,1.00
2019-01-23T15:11:00.707Z,0.90
2019-01-23T15:13:32.082Z,0.90
2019-01-23T15:16:06.173Z,1.00
2019-01-23T15:18:41.088Z,0.90
2019-01-23T15:21:16.046Z,1.00
2019-01-23T15:23:50.476Z,0.90
2019-01-23T15:26:23.282Z,0.90
2019-01-23T15:28:56.232Z,0.80
2019-01-23T15:31:31.055Z,0.90
2019-01-23T15:34:05.303Z,0.80
2019-01-23T15:36:37.721Z,0.80
2019-01-23T15:39:17.937Z,0.70
2019-01-23T15:41:50.772Z,0.70
2019-01-23T15:44:21.303Z,0.70
2019-01-23T15:46:57.383Z,0.70
2019-01-23T15:49:28.344Z,0.60
2019-01-23T15:52:12.992Z,0.60
2019-01-23T15:54:52.463Z,0.70
2019-01-23T15:57:26.053Z,0.70
2019-01-23T15:59:56.660Z,0.70
2019-01-23T16:02:28.451Z,0.70
2019-01-23T16:05:03.278Z,0.80
2019-01-23T16:07:34.798Z,0.70
2019-01-23T16:10:11.290Z,0.60
2019-01-23T16:12:44.432Z,0.60
2019-01-23T16:15:23.614Z,0.50
2019-01-23T16:17:57.770Z,0.50
2019-01-23T16:20:28.374Z,0.50
2019-01-23T16:23:15.253Z,0.60
2019-01-23T16:25:52.696Z,0.60
2019-01-23T16:28:30.908Z,0.70
2019-01-23T16:31:03.325Z,0.70
2019-01-23T16:33:35.468Z,0.70
2019-01-23T16:36:06.666Z,0.70
2019-01-23T16:38:42.336Z,0.80
2019-01-23T16:41:18.922Z,0.80
2019-01-23T16:43:54.158Z,0.80
2019-01-23T16:46:33.637Z,0.80
2019-01-23T16:49:04.940Z,0.90
2019-01-23T16:51:37.081Z,0.80
2019-01-23T16:54:07.864Z,0.80
2019-01-23T16:56:40.235Z,0.70
2019-01-23T16:59:11.744Z,0.70
2019-01-23T17:01:52.127Z,0.80
2019-01-23T17:04:26.314Z,0.90
2019-01-23T17:07:14.921Z,0.90
2019-01-23T17:09:46.790Z,0.90
2019-01-23T17:12:21.722Z,0.80
2019-01-23T17:15:00.685Z,0.80
2019-01-23T17:17:34.966Z,0.70
2019-01-23T17:20:07.983Z,0.80
2019-01-23T17:22:38.316Z,0.80
2019-01-23T17:25:12.960Z,0.80
2019-01-23T17:27:48.849Z,0.90
2019-01-23T17:30:26.000Z,1.00
2019-01-23T17:33:13.311Z,1.00
2019-01-23T17:35:44.906Z,1.10
2019-01-23T17:38:25.983Z,1.10
2019-01-23T17:40:58.105Z,1.10
2019-01-23T17:43:31.283Z,1.10
2019-01-23T17:46:05.825Z,1.00
2019-01-23T17:48:37.241Z,1.00
2019-01-23T17:51:08.325Z,1.00
2019-01-23T17:53:43.621Z,0.90
2019-01-23T17:56:22.143Z,0.90
2019-01-23T17:58:53.724Z,0.80
2019-01-23T18:01:31.631Z,0.80
2019-01-23T18:04:04.033Z,0.90
2019-01-23T18:06:38.063Z,0.90
2019-01-23T18:09:13.412Z,0.90
2019-01-23T18:11:50.357Z,0.90
2019-01-23T18:14:35.285Z,1.00
2019-01-23T18:17:28.674Z,0.90
2019-01-23T18:20:15.410Z,0.90
2019-01-23T18:22:50.380Z,0.90
2019-01-23T18:25:38.816Z,0.90
2019-01-23T18:28:17.233Z,1.00
2019-01-23T18:31:24.481Z,1.00
2019-01-23T18:34:24.302Z,1.10
2019-01-23T18:37:43.808Z,1.20
2019-01-23T18:40:56.600Z,1.10
2019-01-23T18:44:03.092Z,0.90
2019-01-23T18:47:16.368Z,0.90
2019-01-23T18:50:30.721Z,1.00
2019-01-23T18:53:04.469Z,1.00
2019-01-23T18:55:39.984Z,1.00
2019-01-23T18:58:13.962Z,1.00
2019-01-23T19:00:49.353Z,1.00
2019-01-23T19:03:26.276Z,0.90
2019-01-23T19:06:00.458Z,0.90
2019-01-23T19:08:33.887Z,1.00
2019-01-23T19:11:08.152Z,1.00
2019-01-23T19:13:49.770Z,0.90
2019-01-23T19:16:27.054Z,0.80
2019-01-23T19:19:02.567Z,0.80
2019-01-23T19:21:37.211Z,0.80
2019-01-23T19:24:09.365Z,0.80
2019-01-23T19:26:40.701Z,0.80
2019-01-23T19:29:15.522Z,1.00
2019-01-23T19:31:48.748Z,1.00
2019-01-23T19:34:27.971Z,1.00
2019-01-23T19:37:03.151Z,1.00
2019-01-23T19:39:39.974Z,1.00
2019-01-23T19:42:16.197Z,0.90
2019-01-23T19:44:46.993Z,0.80
2019-01-23T19:47:18.842Z,0.80
2019-01-23T19:49:49.592Z,0.80
2019-01-23T19:52:22.158Z,0.80
2019-01-23T19:54:56.060Z,0.80
2019-01-23T19:57:36.225Z,0.90
2019-01-23T20:00:17.725Z,0.90
2019-01-23T20:02:51.400Z,0.90
2019-01-23T20:05:30.327Z,0.90
2019-01-23T20:08:05.315Z,0.90
2019-01-23T20:10:56.963Z,0.90
2019-01-23T20:13:28.440Z,1.00
2019-01-23T20:16:05.988Z,1.00
2019-01-23T20:18:37.693Z,1.10
2019-01-23T20:21:27.424Z,1.00
2019-01-23T20:24:07.807Z,1.00
2019-01-23T20:26:40.348Z,1.00
2019-01-23T20:29:20.336Z,0.90
2019-01-23T20:31:52.981Z,0.90
2019-01-23T20:34:25.684Z,0.90
2019-01-23T20:37:04.949Z,0.90
2019-01-23T20:39:45.533Z,1.00
2019-01-23T20:42:25.376Z,1.00
2019-01-23T20:45:05.052Z,1.00
2019-01-23T20:47:39.825Z,1.00
2019-01-23T20:50:30.632Z,1.00
2019-01-23T20:53:07.345Z,1.00
2019-01-23T20:55:45.639Z,1.00
2019-01-23T20:58:17.790Z,1.00
2019-01-23T21:00:50.382Z,1.10
2019-01-23T21:03:26.838Z,1.00
2019-01-23T21:06:14.570Z,1.00
2019-01-23T21:08:55.540Z,1.00
2019-01-23T21:11:29.462Z,1.10
2019-01-23T21:14:00.252Z,1.20
2019-01-23T21:16:31.867Z,1.20
2019-01-23T21:19:02.435Z,1.30
2019-01-23T21:21:35.176Z,1.30
2019-01-23T21:24:07.148Z,1.30
2019-01-23T21:26:45.398Z,1.30
2019-01-23T21:29:19.536Z,1.20
2019-01-23T21:31:52.083Z,1.30
2019-01-23T21:34:25.024Z,1.30
2019-01-23T21:36:56.215Z,1.30
2019-01-23T21:39:33.299Z,1.40
2019-01-23T21:42:03.857Z,1.20
2019-01-23T21:44:38.609Z,1.00
2019-01-23T21:47:10.889Z,1.10
2019-01-23T21:49:41.871Z,1.20
2019-01-23T21:52:17.849Z,1.30
2019-01-23T21:54:57.380Z,1.30
2019-01-23T21:57:32.629Z,1.30
2019-01-23T22:00:10.318Z,1.40
2019-01-23T22:02:45.897Z,1.40
2019-01-23T22:05:17.434Z,1.20
2019-01-23T22:07:48.060Z,1.10
2019-01-23T22:10:20.008Z,0.90
2019-01-23T22:12:51.936Z,0.60
2019-01-23T22:15:26.453Z,0.70
2019-01-23T22:17:59.926Z,0.80
2019-01-23T22:20:55.389Z,1.00
2019-01-23T22:23:37.726Z,1.00
2019-01-23T22:26:11.277Z,1.00
2019-01-23T22:28:43.237Z,0.70
2019-01-23T22:31:13.533Z,0.60
2019-01-23T22:33:44.253Z,0.50
2019-01-23T22:36:17.022Z,0.40
2019-01-23T22:38:50.912Z,0.20
2019-01-23T22:41:21.352Z,0.00
2019-01-23T22:43:52.095Z,0.00
2019-01-23T22:46:24.905Z,0.00
2019-01-23T22:49:00.125Z,-0.10
2019-01-23T22:51:49.304Z,-0.20
2019-01-23T22:54:26.201Z,-0.30
2019-01-23T22:56:58.400Z,-0.30
2019-01-23T22:59:30.845Z,-0.30
2019-01-23T23:02:02.352Z,-0.40
2019-01-23T23:04:35.952Z,-0.30
2019-01-23T23:07:07.280Z,-0.30
2019-01-23T23:09:44.332Z,-0.30
2019-01-23T23:12:18.206Z,-0.20
2019-01-23T23:15:01.923Z,-0.20
2019-01-23T23:17:48.759Z,-0.30
2019-01-23T23:20:19.435Z,-0.30
2019-01-23T23:22:52.508Z,-0.30
2019-01-23T23:25:23.372Z,-0.30
2019-01-23T23:27:55.722Z,-0.30
2019-01-23T23:30:27.491Z,-0.30
2019-01-23T23:32:57.922Z,-0.40
2019-01-23T23:35:35.200Z,-0.30
2019-01-23T23:38:07.816Z,-0.40
2019-01-23T23:40:41.608Z,-0.40
2019-01-23T23:43:14.135Z,-0.50
2019-01-23T23:45:59.285Z,-0.50
2019-01-23T23:48:29.668Z,-0.60
2019-01-23T23:51:01.273Z,-0.50
2019-01-23T23:53:40.009Z,-0.50
2019-01-23T23:56:13.801Z,-0.40
2019-01-23T23:58:45.197Z,-0.30
